Time;durP1;ratioP1;P1;durP2;ratioP2;P2;SDS_P1;SDS_P2;PMS_P1;PMS_P2;Temp;Humidity;BMP_temperature;BMP_pressure;BME280_temperature;BME280_humidity;BME280_pressure;Samples;Min_cycle;Max_cycle;Signal;HPM_P1;HPM_P2
2023/01/01 00:01:13;;;;;;;45.83;24.67;;;;;;;15.01;94.67;100713.66;4987392;28;20034;-69
2023/01/01 00:03:39;;;;;;;42.08;18.92;;;;;;;14.86;94.93;100712.69;4983628;28;20022;-68
2023/01/01 00:06:11;;;;;;;37.72;19.52;;;;;;;14.88;94.86;100702.88;4988452;28;20681;-71
2023/01/01 00:08:37;;;;;;;37.22;19.42;;;;;;;14.86;95.04;100714.47;4982919;28;20039;-69
2023/01/01 00:11:03;;;;;;;36.13;17.63;;;;;;;14.76;95.47;100708.81;4979065;28;20061;-72
2023/01/01 00:13:29;;;;;;;34.60;12.85;;;;;;;14.83;95.54;100715.50;5001154;28;20088;-71
2023/01/01 00:15:54;;;;;;;32.10;13.68;;;;;;;14.78;95.91;100704.31;4994945;28;20041;-70
2023/01/01 00:18:19;;;;;;;30.25;14.90;;;;;;;14.80;95.81;100715.69;4993138;28;20501;-73
2023/01/01 00:20:45;;;;;;;22.10;10.18;;;;;;;14.78;96.07;100704.31;4993901;28;20027;-71
2023/01/01 00:23:11;;;;;;;33.83;13.88;;;;;;;14.76;96.26;100703.50;4979092;28;20034;-72
2023/01/01 00:25:38;;;;;;;26.77;10.00;;;;;;;14.75;96.73;100701.78;4970413;28;20029;-69
2023/01/01 00:28:04;;;;;;;29.27;10.88;;;;;;;14.78;96.65;100699.00;4985500;28;20042;-70
2023/01/01 00:30:29;;;;;;;23.55;9.68;;;;;;;14.84;96.36;100717.22;4987023;28;20069;-70
2023/01/01 00:32:54;;;;;;;16.33;8.25;;;;;;;14.86;96.29;100709.19;4988167;28;20026;-68
2023/01/01 00:35:20;;;;;;;26.67;9.02;;;;;;;14.85;96.29;100696.88;4988379;28;20033;-71
2023/01/01 00:37:45;;;;;;;23.77;9.27;;;;;;;14.84;95.64;100680.09;4970495;28;20069;-69
2023/01/01 00:40:11;;;;;;;31.02;10.35;;;;;;;14.86;95.84;100699.44;4986740;28;20114;-69
2023/01/01 00:42:39;;;;;;;22.20;8.20;;;;;;;14.83;95.47;100694.28;4987726;28;20026;-68
2023/01/01 00:45:05;;;;;;;28.65;8.52;;;;;;;14.93;95.63;100699.94;4982753;28;20385;-69
2023/01/01 00:47:31;;;;;;;19.08;7.63;;;;;;;14.88;95.33;100680.78;4987757;28;20078;-66
2023/01/01 00:49:56;;;;;;;18.90;7.15;;;;;;;14.97;94.58;100695.34;4987772;28;20034;-71
2023/01/01 00:52:22;;;;;;;18.40;7.35;;;;;;;15.00;94.51;100698.69;4988465;28;20058;-71
2023/01/01 00:54:47;;;;;;;19.50;7.68;;;;;;;14.95;94.47;100706.03;4987332;28;20042;-68
2023/01/01 00:57:12;;;;;;;25.17;6.22;;;;;;;14.96;94.14;100693.63;4987792;28;20022;-72
2023/01/01 00:59:38;;;;;;;21.55;7.50;;;;;;;14.96;94.43;100688.31;4987742;28;20048;-69
2023/01/01 01:02:03;;;;;;;22.50;9.00;;;;;;;14.97;94.80;100698.00;4987589;28;20030;-71
2023/01/01 01:04:28;;;;;;;26.17;8.52;;;;;;;14.77;95.39;100705.19;4987919;28;20541;-68
2023/01/01 01:06:54;;;;;;;19.70;6.68;;;;;;;14.75;94.85;100702.63;4971419;28;20035;-67
2023/01/01 01:09:19;;;;;;;18.10;7.18;;;;;;;14.86;94.53;100717.13;4968614;28;20698;-71
2023/01/01 01:11:44;;;;;;;20.73;6.95;;;;;;;14.85;94.97;100718.94;4967707;28;20043;-71
2023/01/01 01:14:10;;;;;;;18.08;6.03;;;;;;;14.80;95.42;100717.47;4968616;28;20927;-72
2023/01/01 01:16:35;;;;;;;18.38;6.53;;;;;;;14.81;95.28;100706.78;4968987;28;20473;-66
2023/01/01 01:19:03;;;;;;;19.63;6.10;;;;;;;14.86;94.94;100723.31;4968405;28;20142;-69
2023/01/01 01:21:31;;;;;;;17.53;5.90;;;;;;;14.84;95.47;100741.09;4951021;28;20027;-72
2023/01/01 01:23:57;;;;;;;18.77;4.80;;;;;;;14.91;94.90;100733.69;4968296;28;20114;-71
2023/01/01 01:26:25;;;;;;;20.73;4.72;;;;;;;14.96;94.57;100736.91;4967380;28;20119;-67
2023/01/01 01:28:50;;;;;;;16.33;5.00;;;;;;;15.02;95.08;100736.59;4968288;28;20027;-66
2023/01/01 01:31:20;;;;;;;16.55;3.88;;;;;;;14.90;95.00;100721.34;4968714;28;20034;-71
2023/01/01 01:33:46;;;;;;;14.30;3.90;;;;;;;14.95;95.30;100718.44;4968455;28;20492;-71
2023/01/01 01:36:13;;;;;;;15.45;5.18;;;;;;;14.84;95.79;100738.44;4985278;28;20025;-69
2023/01/01 01:38:39;;;;;;;12.32;3.63;;;;;;;14.86;95.47;100725.09;4985719;28;20034;-72
2023/01/01 01:41:05;;;;;;;14.60;4.20;;;;;;;14.93;95.91;100733.59;4967052;28;20089;-69
2023/01/01 01:43:33;;;;;;;21.27;4.47;;;;;;;14.93;96.07;100731.78;4967695;28;20030;-69
2023/01/01 01:46:05;;;;;;;17.63;4.15;;;;;;;14.73;96.88;100732.81;4969921;28;20726;-70
2023/01/01 01:48:37;;;;;;;19.35;3.95;;;;;;;14.83;96.58;100744.69;4971468;28;20034;-68
2023/01/01 01:51:03;;;;;;;11.95;3.83;;;;;;;14.80;96.26;100746.63;4954351;28;20027;-70
2023/01/01 01:53:29;;;;;;;12.63;3.97;;;;;;;14.88;96.26;100741.78;4938620;28;20035;-70
2023/01/01 01:55:57;;;;;;;12.88;3.47;;;;;;;14.87;96.09;100756.00;4962262;28;20073;-69
2023/01/01 01:58:23;;;;;;;8.32;3.33;;;;;;;14.93;96.00;100762.78;4973860;28;20026;-70
2023/01/01 02:00:49;;;;;;;12.75;3.90;;;;;;;14.86;95.54;100751.63;4995078;28;20025;-68
2023/01/01 02:03:23;;;;;;;11.48;4.15;;;;;;;14.91;95.56;100757.56;5074219;23;20053;-63
2023/01/01 02:05:49;;;;;;;11.88;3.45;;;;;;;14.96;95.12;100771.41;4993778;28;20022;-60
2023/01/01 02:08:15;;;;;;;12.75;3.28;;;;;;;14.87;95.06;100769.28;4990206;28;20027;-60
2023/01/01 02:10:41;;;;;;;12.65;3.70;;;;;;;14.85;94.86;100771.13;4972730;28;20439;-62
2023/01/01 02:13:06;;;;;;;12.60;3.97;;;;;;;14.86;94.64;100776.38;4990687;28;20026;-63
2023/01/01 02:15:43;;;;;;;9.38;3.78;;;;;;;14.90;94.64;100766.47;4973393;28;20076;-59
2023/01/01 02:18:12;;;;;;;10.07;2.95;;;;;;;14.91;94.34;100787.56;4973417;28;20077;-62
2023/01/01 02:20:59;;;;;;;18.55;3.90;;;;;;;14.85;94.45;100765.84;4973179;28;20113;-62
2023/01/01 02:23:35;;;;;;;10.85;2.72;;;;;;;14.80;94.59;100784.63;4990772;28;20030;-61
2023/01/01 02:26:21;;;;;;;14.73;3.30;;;;;;;14.83;94.04;100775.66;4972768;28;20023;-62
2023/01/01 02:29:04;;;;;;;12.77;3.42;;;;;;;14.74;94.37;100783.13;4990177;28;20087;-61
2023/01/01 02:31:34;;;;;;;11.30;3.13;;;;;;;14.68;94.59;100785.25;4992155;28;20116;-61
2023/01/01 02:34:02;;;;;;;12.40;3.03;;;;;;;14.65;94.67;100787.13;4991693;28;20481;-63
2023/01/01 02:36:29;;;;;;;8.50;2.33;;;;;;;14.64;94.34;100793.38;4992569;28;20018;-62
2023/01/01 02:38:56;;;;;;;11.02;4.10;;;;;;;14.59;95.01;100787.44;5009898;28;20137;-61
2023/01/01 02:41:29;;;;;;;16.30;3.38;;;;;;;14.64;94.76;100787.22;4992134;28;20034;-62
2023/01/01 02:43:54;;;;;;;8.63;2.40;;;;;;;14.60;95.21;100785.66;4992336;28;20022;-62
2023/01/01 02:46:20;;;;;;;6.90;2.95;;;;;;;14.52;95.33;100783.41;5010732;28;20160;-62
2023/01/01 02:48:47;;;;;;;9.60;2.85;;;;;;;14.47;95.50;100786.28;5010426;28;20022;-63
2023/01/01 02:51:15;;;;;;;10.68;3.40;;;;;;;14.49;95.59;100788.84;5010206;28;20038;-62
2023/01/01 02:54:11;;;;;;;11.90;2.47;;;;;;;14.56;95.70;100771.69;4992207;28;20026;-63
2023/01/01 02:57:06;;;;;;;12.93;2.63;;;;;;;14.50;95.64;100791.44;4991400;28;20042;-62
2023/01/01 03:02:40;;;;;;;11.50;2.63;;;;;;;14.59;95.84;100797.19;5009818;28;20408;-62
2023/01/01 03:05:26;;;;;;;13.32;2.88;;;;;;;14.62;95.76;100797.91;5009375;28;20080;-64
2023/01/01 03:08:13;;;;;;;8.68;2.50;;;;;;;14.65;95.54;100813.66;5009575;28;20034;-64
2023/01/01 03:10:47;;;;;;;10.63;2.92;;;;;;;14.63;95.33;100810.22;4991560;28;20025;-64
2023/01/01 03:13:36;;;;;;;11.68;3.03;;;;;;;14.65;95.52;100829.56;5009665;28;20030;-60
2023/01/01 03:16:03;;;;;;;12.30;2.50;;;;;;;14.83;95.49;100824.28;5003736;28;20145;-56
2023/01/01 03:19:09;;;;;;;9.90;3.17;;;;;;;14.77;98.78;100836.03;5009452;28;20026;-60
2023/01/01 03:21:38;;;;;;;9.40;3.10;;;;;;;14.60;98.65;100852.78;4994016;28;20054;-60
2023/01/01 03:24:03;;;;;;;9.82;2.67;;;;;;;14.54;99.34;100837.19;4991814;28;20377;-59
2023/01/01 03:26:30;;;;;;;10.10;2.45;;;;;;;14.61;99.43;100854.53;5007309;28;20508;-59
2023/01/01 03:28:57;;;;;;;10.68;2.97;;;;;;;14.52;99.74;100860.28;5008608;28;20033;-61
2023/01/01 03:31:24;;;;;;;10.10;2.42;;;;;;;14.52;100.00;100882.38;4990982;28;20053;-64
2023/01/01 03:33:58;;;;;;;8.57;2.42;;;;;;;14.45;100.00;100865.03;5009363;28;20030;-64
2023/01/01 03:36:29;;;;;;;10.98;2.65;;;;;;;14.49;100.00;100871.03;4991125;28;20025;-63
2023/01/01 03:38:58;;;;;;;12.57;3.22;;;;;;;14.39;100.00;100870.66;5008852;28;20041;-64
2023/01/01 03:41:28;;;;;;;13.23;2.85;;;;;;;14.38;100.00;100896.28;4990778;28;20041;-62
2023/01/01 03:44:06;;;;;;;10.90;2.25;;;;;;;14.27;100.00;100885.38;4991153;28;20603;-63
2023/01/01 03:46:34;;;;;;;9.88;2.13;;;;;;;14.32;100.00;100895.72;5008896;28;20026;-63
2023/01/01 03:49:00;;;;;;;10.77;1.63;;;;;;;14.34;99.61;100889.44;5008462;28;20447;-61
2023/01/01 03:51:31;;;;;;;6.93;1.70;;;;;;;14.32;98.61;100908.97;4984641;28;20030;-57
2023/01/01 03:53:59;;;;;;;6.05;1.73;;;;;;;14.36;98.71;100914.06;4997218;28;20037;-64
2023/01/01 03:56:36;;;;;;;8.25;1.95;;;;;;;14.31;98.28;100894.88;4989262;28;20026;-62
2023/01/01 03:59:11;;;;;;;4.85;1.40;;;;;;;14.33;98.31;100900.94;4990756;28;20033;-62
2023/01/01 04:01:40;;;;;;;6.55;1.63;;;;;;;14.31;97.59;100908.13;4971406;28;20042;-61
2023/01/01 04:04:05;;;;;;;5.50;1.75;;;;;;;14.23;96.75;100891.72;4970987;28;20050;-64
2023/01/01 04:06:32;;;;;;;5.60;1.35;;;;;;;14.15;97.80;100913.31;4971467;28;20041;-62
2023/01/01 04:08:58;;;;;;;7.53;1.75;;;;;;;14.23;97.67;100891.72;4988772;28;20026;-62
2023/01/01 04:14:11;;;;;;;6.38;1.60;;;;;;;14.21;98.11;100915.66;4974108;28;20459;-65
2023/01/01 04:16:36;;;;;;;7.65;1.85;;;;;;;14.13;99.11;100925.78;4988868;28;20022;-64
2023/01/01 04:19:01;;;;;;;5.45;1.80;;;;;;;13.99;99.92;100918.47;4988763;28;20030;-62
2023/01/01 04:21:27;;;;;;;7.97;1.88;;;;;;;13.94;99.10;100933.72;4971107;28;20037;-61
2023/01/01 04:23:52;;;;;;;4.97;1.50;;;;;;;13.87;100.00;100920.78;4996728;28;20088;-62
2023/01/01 04:26:19;;;;;;;5.13;1.80;;;;;;;13.90;100.00;100939.19;5007676;28;20373;-62
2023/01/01 04:28:44;;;;;;;8.02;1.60;;;;;;;13.94;100.00;100928.44;5007386;28;20026;-61
2023/01/01 04:31:10;;;;;;;9.57;2.13;;;;;;;13.82;100.00;100941.31;5007689;28;21099;-62
2023/01/01 04:33:36;;;;;;;6.25;1.90;;;;;;;13.84;100.00;100954.47;5008476;28;20029;-62
2023/01/01 04:36:06;;;;;;;10.40;2.53;;;;;;;13.85;100.00;100964.16;5008182;28;20022;-60
2023/01/01 04:38:32;;;;;;;7.38;2.08;;;;;;;13.78;100.00;100968.88;5008323;28;20121;-60
2023/01/01 04:40:59;;;;;;;7.93;1.98;;;;;;;13.80;100.00;100964.38;5006885;28;20033;-63
2023/01/01 04:43:24;;;;;;;11.75;2.30;;;;;;;13.66;100.00;100987.97;5007219;28;20018;-64
2023/01/01 04:46:00;;;;;;;9.45;2.28;;;;;;;13.69;100.00;100979.91;5007552;28;20030;-63
2023/01/01 04:48:26;;;;;;;8.63;2.10;;;;;;;13.56;100.00;101000.72;5007607;28;20660;-63
2023/01/01 04:50:56;;;;;;;10.43;2.92;;;;;;;13.52;100.00;100984.16;5007029;28;20041;-66
2023/01/01 04:53:22;;;;;;;6.13;1.83;;;;;;;13.41;100.00;100995.16;4990670;28;20084;-63
2023/01/01 04:55:47;;;;;;;10.60;3.05;;;;;;;13.58;100.00;100989.13;5007382;28;20030;-63
2023/01/01 04:58:12;;;;;;;11.35;2.35;;;;;;;13.55;100.00;100985.78;5007392;28;20030;-62
2023/01/01 05:00:37;;;;;;;8.52;2.08;;;;;;;13.49;100.00;100998.34;5008238;28;20022;-62
2023/01/01 05:03:03;;;;;;;9.55;2.60;;;;;;;13.58;100.00;100991.78;5007297;28;20049;-62
2023/01/01 05:05:28;;;;;;;7.70;2.45;;;;;;;13.50;100.00;100993.94;4989373;28;20030;-62
2023/01/01 05:07:53;;;;;;;8.38;2.08;;;;;;;13.44;100.00;100994.16;5007653;28;20045;-60
2023/01/01 05:10:19;;;;;;;11.45;2.13;;;;;;;13.33;100.00;100992.00;5006583;28;20026;-61
2023/01/01 05:12:44;;;;;;;13.52;2.20;;;;;;;13.37;100.00;100997.06;5007591;28;20030;-62
2023/01/01 05:15:10;;;;;;;14.65;2.67;;;;;;;13.28;100.00;101010.72;5007933;28;20492;-62
2023/01/01 05:17:35;;;;;;;8.20;2.38;;;;;;;13.30;100.00;101024.72;5008280;28;20440;-59
2023/01/01 05:20:00;;;;;;;8.43;1.88;;;;;;;13.20;100.00;101013.69;5008320;28;20049;-62
2023/01/01 05:22:26;;;;;;;13.10;2.60;;;;;;;13.17;100.00;101010.28;5011514;28;20042;-62
2023/01/01 05:24:51;;;;;;;17.45;2.50;;;;;;;13.23;100.00;101021.50;5006505;28;20017;-63
2023/01/01 05:27:16;;;;;;;13.55;3.05;;;;;;;13.19;100.00;101017.25;5011113;28;20034;-63
2023/01/01 05:29:42;;;;;;;14.55;2.20;;;;;;;13.21;100.00;101047.16;5003225;28;20034;-62
2023/01/01 05:32:07;;;;;;;14.65;2.45;;;;;;;13.22;100.00;101040.06;5000754;28;20026;-60
2023/01/01 05:34:32;;;;;;;7.15;2.05;;;;;;;13.18;100.00;101041.13;5011129;28;20022;-61
2023/01/01 05:36:58;;;;;;;11.10;2.55;;;;;;;13.18;100.00;101020.81;5001509;28;20032;-61
2023/01/01 05:39:23;;;;;;;18.75;2.38;;;;;;;13.05;100.00;101019.59;4992833;28;20415;-61
2023/01/01 05:41:48;;;;;;;10.15;2.30;;;;;;;13.09;100.00;101037.06;5011403;28;20105;-62
2023/01/01 05:44:15;;;;;;;10.18;2.10;;;;;;;13.09;100.00;101059.09;5010694;28;20022;-61
2023/01/01 05:46:40;;;;;;;9.80;2.10;;;;;;;13.18;100.00;101059.66;5011110;28;20033;-62
2023/01/01 05:49:09;;;;;;;14.20;2.53;;;;;;;13.08;100.00;101067.97;5011316;28;20029;-61
2023/01/01 05:51:35;;;;;;;11.68;2.10;;;;;;;13.12;100.00;101055.47;5010560;28;20014;-62
2023/01/01 05:54:00;;;;;;;10.10;2.38;;;;;;;13.15;100.00;101068.56;5010163;28;20394;-66
2023/01/01 05:56:26;;;;;;;13.20;2.33;;;;;;;13.14;100.00;101077.44;5010803;28;20108;-61
2023/01/01 05:58:52;;;;;;;18.38;3.13;;;;;;;13.09;100.00;101082.03;4992618;28;20041;-60
2023/01/01 06:01:21;;;;;;;11.93;2.40;;;;;;;13.07;100.00;101086.53;5011189;28;20120;-63
2023/01/01 06:03:49;;;;;;;12.23;2.47;;;;;;;13.11;100.00;101094.31;5011049;28;20034;-62
2023/01/01 06:06:20;;;;;;;13.68;3.08;;;;;;;13.08;100.00;101072.38;5014159;28;20033;-64
2023/01/01 06:08:56;;;;;;;17.77;2.50;;;;;;;13.07;100.00;101082.13;5007568;28;20113;-64
2023/01/01 06:11:22;;;;;;;14.18;2.38;;;;;;;13.01;100.00;101093.78;5014010;28;20076;-60
2023/01/01 06:13:51;;;;;;;20.20;2.55;;;;;;;13.00;100.00;101080.63;5011693;28;20025;-60
2023/01/01 06:16:16;;;;;;;11.30;2.17;;;;;;;13.00;100.00;101086.78;5012079;28;20106;-62
2023/01/01 06:18:41;;;;;;;13.10;2.88;;;;;;;13.00;100.00;101099.13;5013024;28;20062;-60
2023/01/01 06:21:10;;;;;;;13.88;2.75;;;;;;;12.84;100.00;101117.41;5009518;28;20142;-63
2023/01/01 06:23:35;;;;;;;12.93;2.40;;;;;;;12.93;100.00;101116.19;5009790;28;20033;-64
2023/01/01 06:26:21;;;;;;;12.50;2.45;;;;;;;12.97;100.00;101120.41;5009849;28;20085;-63
2023/01/01 06:28:47;;;;;;;18.83;2.40;;;;;;;12.99;100.00;101122.09;5010936;28;20121;-65
2023/01/01 06:31:14;;;;;;;19.15;2.78;;;;;;;12.97;100.00;101121.28;5009913;28;20149;-63
2023/01/01 06:33:40;;;;;;;13.50;2.50;;;;;;;12.90;100.00;101127.75;5004189;28;20022;-60
2023/01/01 06:36:07;;;;;;;12.93;2.42;;;;;;;12.90;100.00;101122.47;5007339;28;20036;-61
2023/01/01 06:38:34;;;;;;;18.85;3.10;;;;;;;12.89;100.00;101126.88;5010420;28;20033;-65
2023/01/01 06:41:03;;;;;;;11.00;2.50;;;;;;;12.95;100.00;101124.94;5008671;28;20034;-63
2023/01/01 06:43:30;;;;;;;16.10;2.30;;;;;;;12.90;100.00;101122.47;4992926;28;20026;-64
2023/01/01 06:46:06;;;;;;;12.10;2.42;;;;;;;12.86;100.00;101131.44;4993935;28;20160;-58
2023/01/01 06:48:33;;;;;;;13.98;2.35;;;;;;;12.85;100.00;101140.28;5010610;28;20044;-60
2023/01/01 06:51:07;;;;;;;10.07;2.35;;;;;;;12.82;100.00;101143.06;5010939;28;20380;-64
2023/01/01 06:53:32;;;;;;;12.60;2.05;;;;;;;12.73;100.00;101163.63;5013695;28;20101;-63
2023/01/01 06:55:58;;;;;;;12.55;2.25;;;;;;;12.60;100.00;101160.59;5011366;28;20116;-57
2023/01/01 06:58:23;;;;;;;9.15;2.35;;;;;;;12.69;100.00;101177.03;5023222;28;20087;-61
2023/01/01 07:00:48;;;;;;;13.55;2.30;;;;;;;12.70;100.00;101178.78;5024798;28;20114;-61
2023/01/01 07:03:14;;;;;;;14.02;2.53;;;;;;;12.61;100.00;101172.00;5009470;28;20057;-60
2023/01/01 07:05:39;;;;;;;17.80;3.15;;;;;;;12.69;100.00;101161.16;5009713;28;20034;-64
2023/01/01 07:08:04;;;;;;;12.38;2.30;;;;;;;12.68;100.00;101180.59;5009650;28;20499;-64
2023/01/01 07:10:30;;;;;;;22.08;2.88;;;;;;;12.58;100.00;101212.66;4997306;28;20036;-63
2023/01/01 07:12:55;;;;;;;15.75;2.65;;;;;;;12.53;100.00;101204.03;5009457;28;20068;-63
2023/01/01 07:15:20;;;;;;;11.45;2.42;;;;;;;12.58;100.00;101196.78;5009522;28;20069;-58
2023/01/01 07:17:46;;;;;;;16.13;2.63;;;;;;;12.52;100.00;101204.94;5009573;28;20026;-62
2023/01/01 07:20:11;;;;;;;16.98;2.83;;;;;;;12.64;100.00;101207.16;5009537;28;20025;-59
2023/01/01 07:22:38;;;;;;;15.32;2.58;;;;;;;12.54;100.00;101216.34;4991808;28;20026;-62
2023/01/01 07:25:03;;;;;;;13.95;2.67;;;;;;;12.58;100.00;101231.16;4969602;28;20026;-62
2023/01/01 07:27:29;;;;;;;13.13;2.58;;;;;;;12.52;100.00;101226.09;5017778;28;20040;-63
2023/01/01 07:29:54;;;;;;;14.43;2.10;;;;;;;12.48;100.00;101233.28;5009611;28;20061;-64
2023/01/01 07:32:20;;;;;;;11.95;2.00;;;;;;;12.38;100.00;101235.38;5015649;28;20061;-66
2023/01/01 07:34:45;;;;;;;11.20;2.30;;;;;;;12.31;100.00;101240.94;5018389;28;20026;-58
2023/01/01 07:37:10;;;;;;;18.05;2.67;;;;;;;12.27;100.00;101253.38;5008541;28;20034;-63
2023/01/01 07:39:35;;;;;;;12.63;2.40;;;;;;;12.25;100.00;101263.13;5007854;28;20017;-64
2023/01/01 07:42:01;;;;;;;14.38;2.72;;;;;;;12.11;100.00;101287.41;5015185;28;20507;-64
2023/01/01 07:44:26;;;;;;;17.50;3.03;;;;;;;12.25;100.00;101269.28;5014960;28;20018;-63
2023/01/01 07:47:03;;;;;;;13.18;2.10;;;;;;;12.33;100.00;101274.31;4990966;28;20116;-63
2023/01/01 07:49:29;;;;;;;18.67;2.35;;;;;;;12.26;100.00;101278.09;4991185;28;20018;-65
2023/01/01 07:51:54;;;;;;;14.95;2.42;;;;;;;12.12;100.00;101292.63;5008602;28;20036;-63
2023/01/01 07:54:19;;;;;;;18.45;2.63;;;;;;;12.19;100.00;101295.91;5008582;28;20033;-62
2023/01/01 07:56:45;;;;;;;15.82;2.15;;;;;;;12.09;100.00;101300.66;5002928;28;20033;-61
2023/01/01 07:59:10;;;;;;;13.85;2.53;;;;;;;12.04;100.00;101305.16;4997300;28;20323;-63
2023/01/01 08:01:36;;;;;;;13.35;1.92;;;;;;;12.17;100.00;101307.44;4991209;28;20192;-64
2023/01/01 08:04:01;;;;;;;15.15;1.95;;;;;;;12.03;100.00;101311.38;4995693;28;20103;-61
2023/01/01 08:06:27;;;;;;;20.13;2.17;;;;;;;12.16;100.00;101311.00;5005812;28;20022;-64
2023/01/01 08:08:52;;;;;;;11.70;1.88;;;;;;;12.10;100.00;101320.00;5000662;28;20038;-63
2023/01/01 08:11:18;;;;;;;15.05;2.15;;;;;;;12.12;100.00;101320.81;5007799;28;20017;-63
2023/01/01 08:13:43;;;;;;;15.32;2.15;;;;;;;12.16;100.00;101321.59;5002642;28;20030;-63
2023/01/01 08:16:08;;;;;;;14.50;3.10;;;;;;;12.11;100.00;101322.59;5008166;28;20065;-64
2023/01/01 08:18:34;;;;;;;5.93;1.75;;;;;;;12.02;100.00;101314.94;5005649;28;20026;-64
2023/01/01 08:20:59;;;;;;;9.55;2.70;;;;;;;12.10;100.00;101322.66;5007792;28;20038;-63
2023/01/01 08:23:25;;;;;;;11.68;2.13;;;;;;;12.07;100.00;101328.88;5007745;28;20030;-64
2023/01/01 08:25:50;;;;;;;20.75;3.05;;;;;;;12.01;100.00;101319.34;5005352;28;20030;-61
2023/01/01 08:28:15;;;;;;;13.88;2.28;;;;;;;12.13;100.00;101326.03;5007041;28;20099;-67
2023/01/01 08:30:41;;;;;;;9.20;1.80;;;;;;;12.13;100.00;101325.16;5006666;28;20028;-63
2023/01/01 08:33:06;;;;;;;16.95;2.22;;;;;;;12.14;100.00;101313.72;5005734;28;20334;-62
2023/01/01 08:35:31;;;;;;;16.98;2.58;;;;;;;12.12;100.00;101326.09;5004388;28;20446;-66
2023/01/01 08:37:57;;;;;;;11.95;2.60;;;;;;;12.12;100.00;101324.31;4990296;28;20026;-63
2023/01/01 08:40:22;;;;;;;13.23;2.33;;;;;;;12.09;100.00;101337.63;5006910;28;20500;-67
2023/01/01 08:42:47;;;;;;;16.30;2.88;;;;;;;12.24;100.00;101330.09;5008569;28;20014;-61
2023/01/01 08:45:13;;;;;;;13.10;2.17;;;;;;;12.18;100.00;101335.59;5012617;28;20467;-64
2023/01/01 08:47:39;;;;;;;8.40;1.90;;;;;;;12.16;100.00;101348.84;5012118;28;20014;-64
2023/01/01 08:50:05;;;;;;;11.68;1.98;;;;;;;12.20;100.00;101354.91;5003407;28;20065;-61
2023/01/01 08:52:30;;;;;;;9.82;1.67;;;;;;;12.21;100.00;101354.84;5005873;28;20083;-64
2023/01/01 08:54:56;;;;;;;11.80;2.00;;;;;;;12.30;100.00;101369.53;5017691;28;20037;-62
2023/01/01 08:57:21;;;;;;;12.73;2.05;;;;;;;12.27;100.00;101364.34;5014895;28;20625;-63
2023/01/01 08:59:46;;;;;;;10.23;2.00;;;;;;;12.36;100.00;101365.81;5007049;28;20026;-64
2023/01/01 09:02:12;;;;;;;9.68;1.88;;;;;;;12.36;100.00;101372.00;5012773;28;20032;-62
2023/01/01 09:04:37;;;;;;;21.10;2.38;;;;;;;12.38;100.00;101366.66;4994266;28;20034;-62
2023/01/01 09:07:03;;;;;;;12.20;1.88;;;;;;;12.36;100.00;101379.91;5019680;28;20049;-60
2023/01/01 09:09:28;;;;;;;19.05;3.10;;;;;;;12.45;100.00;101383.16;5011576;28;20108;-63
2023/01/01 09:11:56;;;;;;;16.15;2.30;;;;;;;12.55;100.00;101371.34;5011621;28;20045;-64
2023/01/01 09:14:21;;;;;;;10.82;2.33;;;;;;;12.62;100.00;101372.88;5011923;28;20096;-62
2023/01/01 09:16:47;;;;;;;12.90;2.25;;;;;;;12.62;100.00;101367.59;5012127;28;20018;-61
2023/01/01 09:19:12;;;;;;;11.77;2.20;;;;;;;12.60;100.00;101364.16;5011748;28;20026;-61
2023/01/01 09:21:38;;;;;;;18.88;2.03;;;;;;;12.61;100.00;101367.63;5023737;28;20139;-64
2023/01/01 09:24:03;;;;;;;11.88;2.05;;;;;;;12.70;100.00;101371.78;5016710;28;20117;-61
2023/01/01 09:26:29;;;;;;;9.98;2.40;;;;;;;12.61;100.00;101371.16;5003874;28;20121;-65
2023/01/01 09:28:54;;;;;;;11.43;2.00;;;;;;;12.63;100.00;101373.75;5011520;28;20088;-64
2023/01/01 09:31:19;;;;;;;15.88;2.60;;;;;;;12.66;100.00;101371.00;5006705;28;20041;-64
2023/01/01 09:33:45;;;;;;;17.05;2.35;;;;;;;12.67;100.00;101369.25;5003753;28;20026;-63
2023/01/01 09:36:12;;;;;;;15.43;2.88;;;;;;;12.80;100.00;101365.25;5018308;28;20050;-63
2023/01/01 09:38:37;;;;;;;13.65;2.53;;;;;;;12.61;100.00;101359.72;5009925;28;20026;-64
2023/01/01 09:41:32;;;;;;;16.38;2.33;;;;;;;12.83;100.00;101382.78;5010769;28;20040;-62
2023/01/01 09:44:22;;;;;;;14.15;2.13;;;;;;;12.91;100.00;101377.22;5022649;28;20565;-64
2023/01/01 09:46:48;;;;;;;7.53;2.05;;;;;;;12.86;100.00;101380.88;5018982;28;20105;-61
2023/01/01 09:49:38;;;;;;;11.10;2.25;;;;;;;12.87;100.00;101390.56;5019212;28;20026;-63
2023/01/01 09:52:04;;;;;;;11.30;2.30;;;;;;;13.04;100.00;101381.16;5010328;28;20029;-64
2023/01/01 09:54:56;;;;;;;12.52;2.28;;;;;;;13.16;100.00;101400.16;4983145;28;20036;-61
2023/01/01 09:57:27;;;;;;;14.18;2.03;;;;;;;13.14;100.00;101395.81;4998809;28;20037;-64
2023/01/01 09:59:52;;;;;;;14.02;2.50;;;;;;;13.12;100.00;101410.84;5011188;28;20029;-63
2023/01/01 10:02:29;;;;;;;11.20;1.92;;;;;;;13.13;100.00;101402.00;5011549;28;20056;-63
2023/01/01 10:05:13;;;;;;;12.38;2.45;;;;;;;13.05;100.00;101409.34;5010901;28;20038;-65
2023/01/01 10:08:00;;;;;;;9.43;1.48;;;;;;;12.96;100.00;101422.88;5009170;28;20021;-63
2023/01/01 10:10:37;;;;;;;12.75;2.30;;;;;;;13.04;100.00;101420.84;5008251;28;20030;-64
2023/01/01 10:13:05;;;;;;;9.43;2.03;;;;;;;13.05;100.00;101413.75;4988716;28;20029;-62
2023/01/01 10:15:34;;;;;;;13.27;1.95;;;;;;;12.94;100.00;101416.81;5005974;28;20447;-65
2023/01/01 10:18:02;;;;;;;11.63;1.98;;;;;;;12.94;100.00;101414.16;4990155;28;20029;-64
2023/01/01 10:20:34;;;;;;;14.65;2.10;;;;;;;13.04;100.00;101394.41;5002634;28;20081;-64
2023/01/01 10:23:03;;;;;;;13.98;2.15;;;;;;;13.02;100.00;101386.53;5002574;28;20044;-62
2023/01/01 10:25:30;;;;;;;11.32;2.33;;;;;;;13.18;100.00;101382.47;4986458;28;20022;-60
2023/01/01 10:28:15;;;;;;;16.63;2.75;;;;;;;13.20;100.00;101391.19;4989967;28;20492;-61
2023/01/01 10:30:41;;;;;;;12.27;2.40;;;;;;;13.18;100.00;101380.66;5002728;28;20061;-67
2023/01/01 10:33:11;;;;;;;10.55;2.33;;;;;;;13.29;100.00;101366.16;4991389;28;20396;-64
2023/01/01 10:35:40;;;;;;;16.42;2.85;;;;;;;13.42;100.00;101370.09;4986851;28;20022;-65
2023/01/01 10:38:05;;;;;;;;;;;;;;;13.51;100.00;101376.84;4987904;28;20372;-66
2023/01/01 10:40:31;;;;;;;14.55;2.70;;;;;;;13.63;100.00;101392.28;4989963;28;20415;-65
2023/01/01 10:42:59;;;;;;;18.38;2.88;;;;;;;13.73;100.00;101411.31;4992330;28;20079;-67
2023/01/01 10:45:40;;;;;;;14.13;3.15;;;;;;;13.89;100.00;101406.31;5006146;28;20022;-62
2023/01/01 10:48:26;;;;;;;19.50;2.47;;;;;;;13.97;100.00;101419.25;4989456;28;20030;-67
2023/01/01 10:50:52;;;;;;;14.95;2.50;;;;;;;14.04;100.00;101433.13;4991986;28;20060;-67
2023/01/01 10:53:25;;;;;;;11.63;2.78;;;;;;;13.97;100.00;101444.88;5007702;28;20054;-68
2023/01/01 10:56:00;;;;;;;17.38;4.00;;;;;;;13.93;100.00;101435.34;5029908;28;20022;-62
2023/01/01 10:58:33;;;;;;;12.27;2.88;;;;;;;13.90;100.00;101455.72;5023795;28;20433;-64
2023/01/01 11:01:01;;;;;;;12.32;2.72;;;;;;;13.80;100.00;101448.16;5007592;28;20033;-66
2023/01/01 11:03:26;;;;;;;15.25;2.35;;;;;;;13.96;100.00;101440.50;5009437;28;20493;-66
2023/01/01 11:06:05;;;;;;;19.58;3.15;;;;;;;14.05;100.00;101453.38;5009490;28;20033;-64
2023/01/01 11:08:32;;;;;;;11.40;2.42;;;;;;;13.87;100.00;101447.88;5007769;28;20034;-66
2023/01/01 11:11:00;;;;;;;12.95;2.70;;;;;;;13.77;100.00;101459.75;4990991;28;20018;-65
2023/01/01 11:13:26;;;;;;;14.80;2.47;;;;;;;13.75;100.00;101453.63;4991887;28;20048;-66
2023/01/01 11:15:52;;;;;;;11.93;2.47;;;;;;;13.55;100.00;101446.44;5008886;28;20840;-66
2023/01/01 11:18:23;;;;;;;15.32;2.63;;;;;;;13.47;100.00;101444.03;5009361;28;20109;-67
2023/01/01 11:20:53;;;;;;;12.23;2.88;;;;;;;13.37;100.00;101448.81;4992221;28;20495;-68
2023/01/01 11:23:30;;;;;;;12.95;2.85;;;;;;;13.51;100.00;101449.22;4990602;28;20171;-66
2023/01/01 11:26:00;;;;;;;10.50;2.15;;;;;;;13.50;100.00;101446.63;5008025;28;20109;-67